createdAt,value
2022-08-21T02:02:57.178Z,20.96
2022-08-21T02:05:29.807Z,20.94
2022-08-21T02:08:01.930Z,20.95
2022-08-21T02:10:35.444Z,20.95
2022-08-21T02:13:08.399Z,20.95
2022-08-21T02:15:46.029Z,20.93
2022-08-21T02:18:18.324Z,20.92
2022-08-21T02:20:55.855Z,20.91
2022-08-21T02:23:28.550Z,20.89
2022-08-21T02:26:01.474Z,20.87
2022-08-21T02:28:33.726Z,20.84
2022-08-21T02:31:06.853Z,20.81
2022-08-21T02:33:40.079Z,20.78
2022-08-21T02:36:14.976Z,20.76
2022-08-21T02:38:47.150Z,20.74
2022-08-21T02:41:22.348Z,20.71
2022-08-21T02:43:54.408Z,20.68
2022-08-21T02:46:26.587Z,20.65
2022-08-21T02:48:59.032Z,20.62
2022-08-21T02:51:32.054Z,20.60
2022-08-21T02:54:04.401Z,20.58
2022-08-21T02:56:37.627Z,20.56
2022-08-21T02:59:09.729Z,20.54
2022-08-21T03:01:41.819Z,20.51
2022-08-21T03:04:13.989Z,20.50
2022-08-21T03:06:46.397Z,20.45
2022-08-21T03:09:18.572Z,20.43
2022-08-21T03:11:50.818Z,20.41
2022-08-21T03:14:22.924Z,20.39
2022-08-21T03:16:55.039Z,20.37
2022-08-21T03:19:27.455Z,20.34
2022-08-21T03:21:59.520Z,20.31
2022-08-21T03:24:31.564Z,20.28
2022-08-21T03:27:04.643Z,20.26
2022-08-21T03:29:42.069Z,20.23
2022-08-21T03:32:14.355Z,20.22
2022-08-21T03:34:46.518Z,20.22
2022-08-21T03:37:18.838Z,20.22
2022-08-21T03:39:51.031Z,20.20
2022-08-21T03:42:23.356Z,20.21
2022-08-21T03:44:55.893Z,20.20
2022-08-21T03:47:28.302Z,20.21
2022-08-21T03:50:00.517Z,20.22
2022-08-21T03:52:32.731Z,20.25
2022-08-21T03:55:05.000Z,20.26
2022-08-21T03:57:37.064Z,20.25
2022-08-21T04:00:12.923Z,20.28
2022-08-21T04:02:45.529Z,20.30
2022-08-21T04:05:28.224Z,20.33
2022-08-21T04:08:02.484Z,20.38
2022-08-21T04:10:39.028Z,20.39
2022-08-21T04:13:11.616Z,20.44
2022-08-21T04:15:44.491Z,20.47
2022-08-21T04:18:17.265Z,20.50
2022-08-21T04:20:51.621Z,20.54
2022-08-21T04:23:25.451Z,20.59
2022-08-21T04:25:58.669Z,20.67
2022-08-21T04:28:31.369Z,20.73
2022-08-21T04:31:03.859Z,20.82
2022-08-21T04:33:36.019Z,20.91
2022-08-21T04:36:09.132Z,21.01
2022-08-21T04:38:44.681Z,21.08
2022-08-21T04:41:17.168Z,21.27
2022-08-21T04:43:57.681Z,21.59
2022-08-21T04:46:29.888Z,22.02
2022-08-21T04:49:02.750Z,22.37
2022-08-21T04:51:39.503Z,22.74
2022-08-21T04:54:15.656Z,23.21
2022-08-21T04:56:51.994Z,23.59
2022-08-21T04:59:26.667Z,24.06
2022-08-21T05:01:59.187Z,24.44
2022-08-21T05:04:34.082Z,24.94
2022-08-21T05:07:09.796Z,25.36
2022-08-21T05:09:42.665Z,25.76
2022-08-21T05:12:15.398Z,26.15
2022-08-21T05:14:48.143Z,26.54
2022-08-21T05:17:20.327Z,26.84
2022-08-21T05:19:53.357Z,26.88
2022-08-21T05:22:26.590Z,26.63
2022-08-21T05:25:00.834Z,26.34
2022-08-21T05:27:33.133Z,26.13
2022-08-21T05:30:08.559Z,26.03
2022-08-21T05:32:41.012Z,26.04
2022-08-21T05:35:13.219Z,26.33
2022-08-21T05:37:45.292Z,26.60
2022-08-21T05:40:21.627Z,26.76
2022-08-21T05:42:57.653Z,27.07
2022-08-21T05:45:42.850Z,27.53
2022-08-21T05:48:19.883Z,27.92
2022-08-21T05:50:53.440Z,27.92
2022-08-21T05:53:27.007Z,27.76
2022-08-21T05:55:59.231Z,27.89
2022-08-21T05:58:32.260Z,28.21
2022-08-21T06:01:06.007Z,28.54
2022-08-21T06:03:41.786Z,28.69
2022-08-21T06:06:14.004Z,28.88
2022-08-21T06:08:46.670Z,29.11
2022-08-21T06:11:20.767Z,29.36
2022-08-21T06:13:53.236Z,29.53
2022-08-21T06:16:25.908Z,29.78
2022-08-21T06:19:02.144Z,30.10
2022-08-21T06:21:35.031Z,30.18
2022-08-21T06:24:09.349Z,30.12
2022-08-21T06:26:41.472Z,30.25
2022-08-21T06:29:17.497Z,30.73
2022-08-21T06:31:50.684Z,31.38
2022-08-21T06:34:22.891Z,32.13
2022-08-21T06:36:55.271Z,33.00
2022-08-21T06:39:32.352Z,33.77
2022-08-21T06:42:05.217Z,34.35
2022-08-21T06:44:42.715Z,34.72
2022-08-21T06:47:15.700Z,35.10
2022-08-21T06:49:48.075Z,35.46
2022-08-21T06:52:21.712Z,35.88
2022-08-21T06:54:53.806Z,36.13
2022-08-21T06:57:26.763Z,36.33
2022-08-21T06:59:59.180Z,36.55
2022-08-21T07:02:31.427Z,36.86
2022-08-21T07:05:09.001Z,37.18
2022-08-21T07:07:50.552Z,37.46
2022-08-21T07:10:23.094Z,37.66
2022-08-21T07:13:00.880Z,37.73
2022-08-21T07:15:33.975Z,37.90
2022-08-21T07:18:06.632Z,38.19
2022-08-21T07:20:39.284Z,38.54
2022-08-21T07:23:14.099Z,38.78
2022-08-21T07:25:46.187Z,39.06
2022-08-21T07:28:18.296Z,39.40
2022-08-21T07:30:55.422Z,39.85
2022-08-21T07:33:29.227Z,40.31
2022-08-21T07:36:03.124Z,40.60
2022-08-21T07:38:35.519Z,40.77
2022-08-21T07:41:15.612Z,40.85
2022-08-21T07:43:48.396Z,40.79
2022-08-21T07:46:20.621Z,40.79
2022-08-21T07:48:53.632Z,40.83
2022-08-21T07:51:31.194Z,40.78
2022-08-21T07:54:03.986Z,40.76
2022-08-21T07:56:37.070Z,40.80
2022-08-21T07:59:09.413Z,40.82
2022-08-21T08:01:41.749Z,40.86
2022-08-21T08:04:14.065Z,41.03
2022-08-21T08:06:47.136Z,41.27
2022-08-21T08:09:19.491Z,41.59
2022-08-21T08:11:51.661Z,41.79
2022-08-21T08:14:26.490Z,41.95
2022-08-21T08:17:03.650Z,42.16
2022-08-21T08:19:35.746Z,42.35
2022-08-21T08:22:16.851Z,42.48
2022-08-21T08:24:49.630Z,42.44
2022-08-21T08:27:22.399Z,42.16
2022-08-21T08:29:54.551Z,42.15
2022-08-21T08:32:27.180Z,42.08
2022-08-21T08:34:59.330Z,41.86
2022-08-21T08:37:34.556Z,41.59
2022-08-21T08:40:08.492Z,41.39
2022-08-21T08:42:41.555Z,41.15
2022-08-21T08:45:15.855Z,41.19
2022-08-21T08:47:51.948Z,41.19
2022-08-21T08:50:29.806Z,41.14
2022-08-21T08:53:06.389Z,41.35
2022-08-21T08:55:40.414Z,41.67
2022-08-21T08:58:14.159Z,41.55
2022-08-21T09:00:48.715Z,41.23
2022-08-21T09:03:22.780Z,40.84
2022-08-21T09:06:02.533Z,40.54
2022-08-21T09:08:51.090Z,40.38
2022-08-21T09:11:34.673Z,40.15
2022-08-21T09:14:16.869Z,40.24
2022-08-21T09:16:56.216Z,40.19
2022-08-21T09:19:53.158Z,40.15
2022-08-21T09:22:33.166Z,39.89
2022-08-21T09:25:14.455Z,39.89
2022-08-21T09:27:46.572Z,39.96
2022-08-21T09:30:19.503Z,40.03
2022-08-21T09:32:51.683Z,40.09
2022-08-21T09:35:26.243Z,39.66
2022-08-21T09:38:02.132Z,38.57
2022-08-21T09:40:40.041Z,37.43
2022-08-21T09:43:27.155Z,36.57
2022-08-21T09:46:12.883Z,36.11
2022-08-21T09:48:51.274Z,36.07
2022-08-21T09:51:27.136Z,36.11
2022-08-21T09:54:12.537Z,35.92
2022-08-21T09:57:15.384Z,35.82
2022-08-21T09:59:49.648Z,36.19
2022-08-21T10:02:32.348Z,36.38
2022-08-21T10:05:12.101Z,36.18
2022-08-21T10:07:44.223Z,35.83
2022-08-21T10:10:21.895Z,35.54
2022-08-21T10:13:13.432Z,35.16
2022-08-21T10:15:55.583Z,34.57
2022-08-21T10:18:32.381Z,34.13
2022-08-21T10:21:12.115Z,33.76
2022-08-21T10:24:04.140Z,33.43
2022-08-21T10:26:47.133Z,33.13
2022-08-21T10:29:41.646Z,32.84
2022-08-21T10:32:28.435Z,32.66
2022-08-21T10:35:08.631Z,32.41
2022-08-21T10:37:54.953Z,32.21
2022-08-21T10:40:32.454Z,32.30
2022-08-21T10:43:18.955Z,32.21
2022-08-21T10:46:00.066Z,32.37
2022-08-21T10:48:38.770Z,32.63
2022-08-21T10:51:18.699Z,32.58
2022-08-21T10:54:07.509Z,32.37
2022-08-21T10:56:43.998Z,32.19
2022-08-21T10:59:33.291Z,32.14
2022-08-21T11:02:23.612Z,32.23
2022-08-21T11:04:59.459Z,32.13
2022-08-21T11:07:37.344Z,31.99
2022-08-21T11:10:17.048Z,31.76
2022-08-21T11:12:54.258Z,31.50
2022-08-21T11:15:37.551Z,31.40
2022-08-21T11:18:23.981Z,31.63
2022-08-21T11:21:05.176Z,31.95
2022-08-21T11:23:46.003Z,32.03
2022-08-21T11:26:25.413Z,32.00
2022-08-21T11:29:06.481Z,31.86
2022-08-21T11:31:50.425Z,31.74
2022-08-21T11:34:38.967Z,31.85
2022-08-21T11:37:21.680Z,31.87
2022-08-21T11:40:04.304Z,31.93
2022-08-21T11:42:46.408Z,32.14
2022-08-21T11:45:28.238Z,32.31
2022-08-21T11:48:09.465Z,32.41
2022-08-21T11:50:45.919Z,32.28
2022-08-21T11:53:19.605Z,32.08
2022-08-21T11:56:04.364Z,31.92
2022-08-21T11:58:40.786Z,31.97
2022-08-21T12:01:18.213Z,31.98
2022-08-21T12:03:57.691Z,31.97
2022-08-21T12:06:36.754Z,32.06
2022-08-21T12:09:11.763Z,32.21
2022-08-21T12:12:01.890Z,32.36
2022-08-21T12:14:43.694Z,32.56
2022-08-21T12:17:23.803Z,32.74
2022-08-21T12:20:03.932Z,32.91
2022-08-21T12:22:51.906Z,32.90
2022-08-21T12:25:25.404Z,33.03
2022-08-21T12:28:09.669Z,33.12
2022-08-21T12:30:44.468Z,33.22
2022-08-21T12:33:31.107Z,33.23
2022-08-21T12:36:12.562Z,33.19
2022-08-21T12:38:52.581Z,33.09
2022-08-21T12:41:31.062Z,32.92
2022-08-21T12:44:07.347Z,32.88
2022-08-21T12:46:39.569Z,32.68
2022-08-21T12:49:21.267Z,32.52
2022-08-21T12:51:58.860Z,32.53
2022-08-21T12:54:34.325Z,32.57
2022-08-21T12:57:08.906Z,32.53
2022-08-21T12:59:43.348Z,32.54
2022-08-21T13:02:20.946Z,32.54
2022-08-21T13:04:56.289Z,32.38
2022-08-21T13:07:34.462Z,32.31
2022-08-21T13:10:11.657Z,32.27
2022-08-21T13:12:46.188Z,32.23
2022-08-21T13:15:25.411Z,32.12
2022-08-21T13:18:07.803Z,31.82
2022-08-21T13:20:43.426Z,31.60
2022-08-21T13:23:26.558Z,31.41
2022-08-21T13:25:59.977Z,31.20
2022-08-21T13:28:38.883Z,31.04
2022-08-21T13:31:12.939Z,30.85
2022-08-21T13:33:46.646Z,30.67
2022-08-21T13:36:22.904Z,30.56
2022-08-21T13:38:56.027Z,30.54
2022-08-21T13:41:31.923Z,30.44
2022-08-21T13:44:06.744Z,30.26
2022-08-21T13:46:40.377Z,30.17
2022-08-21T13:49:15.412Z,30.10
2022-08-21T13:51:51.187Z,30.03
2022-08-21T13:54:29.642Z,30.00
2022-08-21T13:57:02.260Z,29.97
2022-08-21T13:59:36.780Z,29.93
2022-08-21T14:02:16.515Z,29.93
2022-08-21T14:04:56.911Z,29.97
2022-08-21T14:07:37.147Z,29.91
2022-08-21T14:10:17.478Z,29.84
2022-08-21T14:12:53.368Z,29.77
2022-08-21T14:15:30.353Z,29.71
2022-08-21T14:18:17.768Z,29.69
2022-08-21T14:20:50.309Z,29.62
2022-08-21T14:23:29.390Z,29.57
2022-08-21T14:26:06.225Z,29.54
2022-08-21T14:28:48.447Z,29.48
2022-08-21T14:31:23.561Z,29.41
2022-08-21T14:34:32.891Z,29.35
2022-08-21T14:37:12.002Z,29.15
2022-08-21T14:39:45.962Z,29.02
2022-08-21T14:42:18.144Z,28.96
2022-08-21T14:44:50.369Z,28.94
2022-08-21T14:47:23.070Z,28.96
2022-08-21T14:49:55.717Z,28.96
2022-08-21T14:52:29.889Z,28.95
2022-08-21T14:55:04.842Z,28.97
2022-08-21T14:57:39.538Z,29.00
2022-08-21T15:00:14.895Z,29.03
2022-08-21T15:02:47.404Z,29.00
2022-08-21T15:05:33.026Z,28.94
2022-08-21T15:08:06.286Z,28.91
2022-08-21T15:10:57.040Z,28.92
2022-08-21T15:13:32.883Z,28.93
2022-08-21T15:16:05.272Z,28.89
2022-08-21T15:18:37.730Z,28.83
2022-08-21T15:21:10.522Z,28.75
2022-08-21T15:23:43.930Z,28.67
2022-08-21T15:26:16.503Z,28.59
2022-08-21T15:28:49.257Z,28.49
2022-08-21T15:31:21.355Z,28.39
2022-08-21T15:33:53.670Z,28.29
2022-08-21T15:36:26.012Z,28.20
2022-08-21T15:38:58.232Z,28.13
2022-08-21T15:41:31.319Z,28.07
2022-08-21T15:44:03.930Z,28.03
2022-08-21T15:46:36.101Z,27.91
2022-08-21T15:49:08.839Z,27.81
2022-08-21T15:51:43.635Z,27.74
2022-08-21T15:54:17.837Z,27.67
2022-08-21T15:56:52.932Z,27.60
2022-08-21T15:59:26.319Z,27.54
2022-08-21T16:01:59.399Z,27.47
2022-08-21T16:04:32.038Z,27.42
2022-08-21T16:07:09.538Z,27.38
2022-08-21T16:09:44.753Z,27.32
2022-08-21T16:12:23.944Z,27.22
2022-08-21T16:14:57.093Z,27.08
2022-08-21T16:17:33.482Z,26.98
2022-08-21T16:20:09.665Z,26.89
2022-08-21T16:22:44.630Z,26.81
2022-08-21T16:25:18.490Z,26.73
2022-08-21T16:28:05.089Z,26.67
2022-08-21T16:30:48.277Z,26.62
2022-08-21T16:33:26.487Z,26.52
2022-08-21T16:35:58.583Z,26.40
2022-08-21T16:38:32.769Z,26.27
2022-08-21T16:41:13.148Z,26.13
2022-08-21T16:43:46.486Z,26.03
2022-08-21T16:46:19.261Z,25.96
2022-08-21T16:48:55.555Z,25.86
2022-08-21T16:51:27.571Z,25.78
2022-08-21T16:54:00.189Z,25.71
2022-08-21T16:56:33.264Z,25.66
2022-08-21T16:59:06.082Z,25.61
2022-08-21T17:01:38.431Z,25.55
2022-08-21T17:04:11.058Z,25.50
2022-08-21T17:06:44.181Z,25.42
2022-08-21T17:09:16.772Z,25.33
2022-08-21T17:11:50.795Z,25.25
2022-08-21T17:14:24.949Z,25.17
2022-08-21T17:16:58.283Z,25.11
2022-08-21T17:19:30.375Z,25.06
2022-08-21T17:22:14.160Z,25.01
2022-08-21T17:24:46.423Z,24.96
2022-08-21T17:27:19.534Z,24.89
2022-08-21T17:29:56.249Z,24.82
2022-08-21T17:32:28.539Z,24.76
2022-08-21T17:35:00.657Z,24.66
2022-08-21T17:37:32.769Z,24.59
2022-08-21T17:40:06.832Z,24.53
2022-08-21T17:42:39.202Z,24.48
2022-08-21T17:45:14.318Z,24.44
2022-08-21T17:47:47.525Z,24.40
2022-08-21T17:50:22.579Z,24.36
2022-08-21T17:52:55.402Z,24.31
2022-08-21T17:55:28.328Z,24.27
2022-08-21T17:58:02.354Z,24.24
2022-08-21T18:00:35.540Z,24.22
2022-08-21T18:03:14.785Z,24.20
2022-08-21T18:05:48.862Z,24.15
2022-08-21T18:08:21.574Z,24.09
2022-08-21T18:10:54.164Z,24.04
2022-08-21T18:13:35.335Z,24.01
2022-08-21T18:16:08.927Z,23.97
2022-08-21T18:18:44.945Z,23.93
2022-08-21T18:21:17.681Z,23.88
2022-08-21T18:23:50.236Z,23.83
2022-08-21T18:26:29.667Z,23.77
2022-08-21T18:29:03.717Z,23.71
2022-08-21T18:31:39.326Z,23.66
2022-08-21T18:34:20.470Z,23.64
2022-08-21T18:36:53.586Z,23.63
2022-08-21T18:39:36.531Z,23.63
2022-08-21T18:42:13.819Z,23.62
2022-08-21T18:44:45.602Z,23.61
2022-08-21T18:47:22.576Z,23.58
2022-08-21T18:49:54.775Z,23.57
2022-08-21T18:55:21.323Z,23.56
2022-08-21T18:57:53.737Z,23.54
2022-08-21T19:00:28.980Z,23.52
2022-08-21T19:03:02.016Z,23.51
2022-08-21T19:05:39.947Z,23.48
2022-08-21T19:08:13.878Z,23.45
2022-08-21T19:10:48.166Z,23.40
2022-08-21T19:13:23.097Z,23.35
2022-08-21T19:15:56.745Z,23.33
2022-08-21T19:18:30.957Z,23.29
2022-08-21T19:21:03.418Z,23.27
2022-08-21T19:23:35.634Z,23.24
2022-08-21T19:26:10.880Z,23.20
2022-08-21T19:28:46.183Z,23.17
2022-08-21T19:31:23.551Z,23.13
2022-08-21T19:34:01.628Z,23.10
2022-08-21T19:36:34.423Z,23.08
2022-08-21T19:39:08.393Z,23.04
2022-08-21T19:41:45.490Z,23.03
2022-08-21T19:44:20.989Z,23.00
2022-08-21T19:46:54.992Z,22.99
2022-08-21T19:49:33.396Z,22.98
2022-08-21T19:52:12.951Z,22.96
2022-08-21T19:54:46.580Z,22.95
2022-08-21T19:57:19.763Z,22.94
2022-08-21T19:59:53.281Z,22.95
2022-08-21T20:02:27.343Z,22.96
2022-08-21T20:04:59.379Z,22.98
2022-08-21T20:07:32.123Z,23.00
2022-08-21T20:10:04.630Z,23.00
2022-08-21T20:12:37.449Z,23.01
2022-08-21T20:15:11.738Z,23.03
2022-08-21T20:17:43.814Z,23.03
2022-08-21T20:20:15.889Z,23.03
2022-08-21T20:22:48.467Z,23.03
2022-08-21T20:25:21.267Z,23.03
2022-08-21T20:27:53.585Z,23.03
2022-08-21T20:30:25.890Z,23.01
2022-08-21T20:32:58.042Z,23.01
2022-08-21T20:35:30.276Z,23.00
2022-08-21T20:38:02.341Z,22.98
2022-08-21T20:40:37.701Z,22.98
2022-08-21T20:43:12.834Z,22.98
2022-08-21T20:45:45.683Z,22.98
2022-08-21T20:48:23.618Z,22.98
2022-08-21T20:51:02.004Z,22.98
2022-08-21T20:53:43.851Z,22.97
2022-08-21T20:56:21.418Z,22.97
2022-08-21T20:59:03.175Z,22.97
2022-08-21T21:01:36.764Z,22.97
2022-08-21T21:04:20.811Z,22.96
2022-08-21T21:06:58.985Z,22.96
2022-08-21T21:09:40.343Z,22.96
2022-08-21T21:12:18.274Z,22.96
2022-08-21T21:15:05.434Z,22.94
2022-08-21T21:17:43.652Z,22.91
2022-08-21T21:20:25.016Z,22.89
2022-08-21T21:23:05.504Z,22.87
2022-08-21T21:25:46.903Z,22.85
2022-08-21T21:28:36.351Z,22.83
2022-08-21T21:31:08.840Z,22.82
2022-08-21T21:33:40.943Z,22.81
2022-08-21T21:36:20.720Z,22.80
2022-08-21T21:39:08.550Z,22.77
2022-08-21T21:41:54.404Z,22.74
2022-08-21T21:44:57.077Z,22.71
2022-08-21T21:47:40.695Z,22.71
2022-08-21T21:50:27.980Z,22.69
2022-08-21T21:56:10.103Z,22.64
2022-08-21T21:59:02.333Z,22.63
2022-08-21T22:01:47.945Z,22.62
2022-08-21T22:04:28.722Z,22.60
2022-08-21T22:07:11.236Z,22.59
2022-08-21T22:09:48.080Z,22.58
2022-08-21T22:12:32.149Z,22.56
2022-08-21T22:15:04.869Z,22.54
2022-08-21T22:17:45.733Z,22.52
2022-08-21T22:20:25.103Z,22.50
2022-08-21T22:22:58.827Z,22.47
2022-08-21T22:25:35.722Z,22.42
2022-08-21T22:28:12.550Z,22.40
2022-08-21T22:30:49.898Z,22.38
2022-08-21T22:33:25.770Z,22.35
2022-08-21T22:36:00.349Z,22.32
2022-08-21T22:38:37.137Z,22.28
2022-08-21T22:41:19.220Z,22.23
2022-08-21T22:43:56.913Z,22.19
2022-08-21T22:46:32.817Z,22.13
2022-08-21T22:49:10.134Z,22.09
2022-08-21T22:51:45.895Z,22.06
2022-08-21T22:54:31.671Z,22.05
2022-08-21T22:57:07.630Z,22.01
2022-08-21T22:59:53.447Z,21.99
2022-08-21T23:02:34.332Z,21.96
2022-08-21T23:05:18.427Z,21.91
2022-08-21T23:07:51.585Z,21.85
2022-08-21T23:10:29.483Z,21.84
2022-08-21T23:19:10.915Z,21.75
2022-08-21T23:21:57.817Z,21.75
2022-08-21T23:24:50.250Z,21.76
2022-08-21T23:27:35.725Z,21.77
2022-08-21T23:30:12.758Z,21.79
2022-08-21T23:33:19.193Z,21.79
2022-08-21T23:36:23.147Z,21.79
2022-08-21T23:39:15.384Z,21.78
2022-08-21T23:41:57.726Z,21.78
2022-08-21T23:44:45.932Z,21.74
2022-08-21T23:47:34.088Z,21.69
2022-08-21T23:53:16.502Z,21.61
2022-08-21T23:56:02.095Z,21.59
2022-08-21T23:58:53.505Z,21.60
